createdAt,value
2023-02-04T00:00:37.744Z,59.03
2023-02-04T00:03:06.948Z,59.47
2023-02-04T00:05:35.443Z,59.67
2023-02-04T00:08:06.461Z,59.48
2023-02-04T00:10:37.252Z,59.88
2023-02-04T00:13:05.656Z,59.69
2023-02-04T00:15:34.003Z,60.09
2023-02-04T00:18:04.342Z,60.09
2023-02-04T00:20:34.182Z,60.16
2023-02-04T00:23:04.132Z,60.45
2023-02-04T00:25:33.826Z,60.35
2023-02-04T00:28:04.431Z,60.54
2023-02-04T00:30:33.397Z,60.30
2023-02-04T00:33:01.795Z,60.70
2023-02-04T00:35:30.176Z,60.67
2023-02-04T00:37:58.694Z,61.21
2023-02-04T00:40:27.058Z,61.47
2023-02-04T00:42:55.440Z,61.89
2023-02-04T00:45:25.404Z,62.22
2023-02-04T00:47:53.849Z,62.13
2023-02-04T00:50:22.198Z,62.98
2023-02-04T00:52:50.597Z,62.76
2023-02-04T00:55:19.025Z,63.07
2023-02-04T00:57:48.306Z,62.79
2023-02-04T01:00:19.119Z,62.82
2023-02-04T01:02:48.986Z,62.60
2023-02-04T01:05:17.359Z,63.13
2023-02-04T01:07:45.736Z,63.02
2023-02-04T01:10:16.313Z,63.08
2023-02-04T01:12:45.059Z,63.06
2023-02-04T01:15:13.551Z,63.20
2023-02-04T01:17:42.689Z,63.28
2023-02-04T01:20:13.575Z,63.20
2023-02-04T01:22:43.057Z,62.84
2023-02-04T01:25:11.452Z,63.13
2023-02-04T01:27:39.810Z,62.59
2023-02-04T01:30:09.565Z,62.85
2023-02-04T01:32:37.950Z,62.21
2023-02-04T01:35:07.595Z,62.16
2023-02-04T01:37:37.475Z,62.55
2023-02-04T01:40:07.314Z,62.58
2023-02-04T01:42:35.754Z,62.63
2023-02-04T01:45:06.438Z,62.56
2023-02-04T01:47:35.242Z,62.29
2023-02-04T01:50:04.127Z,62.07
2023-02-04T01:52:38.361Z,61.77
2023-02-04T01:55:12.657Z,62.07
2023-02-04T01:57:41.230Z,62.01
2023-02-04T02:00:15.867Z,61.96
2023-02-04T02:02:47.297Z,62.15
2023-02-04T02:05:21.322Z,61.91
2023-02-04T02:07:52.476Z,62.34
2023-02-04T02:10:21.474Z,62.52
2023-02-04T02:12:50.935Z,63.09
2023-02-04T02:15:20.206Z,63.30
2023-02-04T02:17:48.905Z,63.63
2023-02-04T02:20:19.484Z,63.96
2023-02-04T02:22:59.640Z,63.98
2023-02-04T02:25:29.457Z,64.42
2023-02-04T02:27:59.780Z,64.83
2023-02-04T02:30:30.246Z,64.77
2023-02-04T02:32:59.376Z,64.99
2023-02-04T02:35:27.981Z,65.44
2023-02-04T02:37:56.371Z,65.04
2023-02-04T02:40:25.047Z,65.36
2023-02-04T02:42:55.582Z,65.29
2023-02-04T02:45:27.054Z,65.47
2023-02-04T02:47:57.603Z,65.48
2023-02-04T02:50:28.064Z,66.09
2023-02-04T02:52:57.228Z,65.75
2023-02-04T02:55:28.013Z,65.72
2023-02-04T02:57:58.978Z,66.33
2023-02-04T03:00:29.962Z,66.25
2023-02-04T03:03:02.643Z,66.53
2023-02-04T03:05:34.081Z,66.55
2023-02-04T03:08:02.862Z,66.25
2023-02-04T03:10:31.597Z,66.74
2023-02-04T03:13:01.983Z,67.05
2023-02-04T03:15:30.658Z,67.11
2023-02-04T03:17:59.541Z,67.37
2023-02-04T03:20:31.274Z,67.60
2023-02-04T03:23:00.103Z,67.75
2023-02-04T03:25:29.409Z,67.56
2023-02-04T03:27:59.330Z,66.42
2023-02-04T03:30:29.777Z,64.72
2023-02-04T03:32:58.690Z,64.67
2023-02-04T03:35:27.149Z,63.79
2023-02-04T03:37:55.592Z,63.42
2023-02-04T03:40:23.917Z,64.66
2023-02-04T03:42:52.257Z,64.64
2023-02-04T03:45:20.757Z,65.83
2023-02-04T03:47:50.572Z,66.63
2023-02-04T03:50:19.044Z,66.74
2023-02-04T03:52:49.087Z,66.21
2023-02-04T03:55:17.539Z,66.98
2023-02-04T03:57:45.885Z,66.81
2023-02-04T04:00:15.476Z,67.27
2023-02-04T04:02:44.530Z,67.01
2023-02-04T04:05:14.418Z,67.02
2023-02-04T04:07:42.816Z,67.04
2023-02-04T04:10:11.558Z,67.02
2023-02-04T04:12:39.937Z,66.89
2023-02-04T04:15:08.936Z,66.92
2023-02-04T04:17:37.304Z,66.85
2023-02-04T04:20:06.796Z,66.71
2023-02-04T04:22:36.599Z,66.43
2023-02-04T04:25:05.261Z,66.62
2023-02-04T04:27:33.875Z,66.63
2023-02-04T04:30:02.463Z,66.80
2023-02-04T04:32:30.828Z,66.93
2023-02-04T04:34:59.217Z,66.72
2023-02-04T04:37:27.673Z,66.76
2023-02-04T04:39:57.422Z,66.61
2023-02-04T04:42:25.830Z,65.84
2023-02-04T04:44:54.116Z,66.14
2023-02-04T04:47:22.483Z,66.02
2023-02-04T04:49:50.893Z,66.33
2023-02-04T04:52:19.362Z,66.34
2023-02-04T04:54:47.643Z,66.38
2023-02-04T04:57:17.524Z,65.99
2023-02-04T04:59:45.917Z,66.00
2023-02-04T05:02:14.264Z,66.00
2023-02-04T05:04:42.745Z,65.98
2023-02-04T05:07:11.155Z,66.20
2023-02-04T05:09:39.468Z,66.11
2023-02-04T05:12:07.995Z,65.95
2023-02-04T05:14:37.690Z,65.76
2023-02-04T05:17:06.805Z,65.79
2023-02-04T05:19:35.171Z,66.02
2023-02-04T05:22:03.548Z,64.75
2023-02-04T05:24:31.821Z,63.69
2023-02-04T05:27:00.401Z,64.68
2023-02-04T05:29:28.806Z,65.42
2023-02-04T05:31:58.638Z,65.49
2023-02-04T05:34:27.082Z,65.44
2023-02-04T05:36:55.478Z,65.40
2023-02-04T05:39:23.875Z,65.00
2023-02-04T05:41:52.244Z,64.95
2023-02-04T05:44:20.656Z,64.83
2023-02-04T05:46:49.039Z,64.61
2023-02-04T05:49:18.839Z,64.19
2023-02-04T05:51:47.226Z,63.98
2023-02-04T05:54:19.591Z,63.91
2023-02-04T05:56:48.589Z,63.68
2023-02-04T05:59:16.919Z,64.34
2023-02-04T06:01:45.417Z,64.09
2023-02-04T06:04:15.626Z,64.43
2023-02-04T06:06:45.738Z,64.87
2023-02-04T06:09:14.297Z,64.95
2023-02-04T06:11:42.653Z,64.46
2023-02-04T06:14:11.036Z,64.31
2023-02-04T06:16:39.380Z,64.51
2023-02-04T06:19:07.812Z,64.85
2023-02-04T06:21:36.152Z,64.71
2023-02-04T06:24:06.437Z,64.52
2023-02-04T06:26:34.776Z,64.04
2023-02-04T06:29:03.233Z,64.20
2023-02-04T06:31:31.903Z,64.15
2023-02-04T06:34:00.367Z,63.82
2023-02-04T06:36:28.746Z,63.88
2023-02-04T06:38:57.593Z,63.63
2023-02-04T06:41:27.416Z,63.62
2023-02-04T06:43:55.750Z,63.28
2023-02-04T06:46:24.451Z,63.59
2023-02-04T06:48:52.868Z,63.51
2023-02-04T06:51:21.196Z,63.16
2023-02-04T06:53:49.623Z,63.39
2023-02-04T06:56:18.033Z,62.20
2023-02-04T06:58:47.880Z,61.89
2023-02-04T07:01:16.360Z,63.04
2023-02-04T07:03:44.789Z,63.07
2023-02-04T07:06:13.210Z,63.05
2023-02-04T07:08:41.588Z,63.53
2023-02-04T07:11:10.075Z,63.50
2023-02-04T07:13:38.454Z,63.83
2023-02-04T07:16:09.313Z,64.02
2023-02-04T07:18:37.780Z,64.17
2023-02-04T07:21:06.512Z,63.68
2023-02-04T07:23:34.831Z,62.43
2023-02-04T07:26:03.189Z,61.92
2023-02-04T07:28:31.695Z,62.61
2023-02-04T07:31:00.213Z,62.26
2023-02-04T07:33:30.367Z,62.99
2023-02-04T07:35:58.670Z,62.87
2023-02-04T07:38:27.143Z,61.98
2023-02-04T07:40:55.569Z,61.40
2023-02-04T07:43:24.600Z,62.37
2023-02-04T07:45:52.934Z,62.11
2023-02-04T07:48:21.426Z,62.46
2023-02-04T07:50:51.259Z,62.22
2023-02-04T07:53:19.595Z,61.90
2023-02-04T07:55:47.945Z,61.95
2023-02-04T07:58:16.498Z,62.65
2023-02-04T08:00:44.895Z,62.90
2023-02-04T08:03:13.204Z,62.78
2023-02-04T08:05:41.672Z,62.93
2023-02-04T08:08:11.377Z,63.00
2023-02-04T08:10:39.818Z,63.20
2023-02-04T08:13:08.256Z,62.65
2023-02-04T08:15:36.688Z,62.76
2023-02-04T08:18:05.873Z,62.47
2023-02-04T08:20:34.920Z,62.85
2023-02-04T08:23:03.420Z,62.28
2023-02-04T08:25:33.124Z,62.64
2023-02-04T08:28:01.591Z,62.78
2023-02-04T08:30:30.338Z,62.45
2023-02-04T08:32:59.164Z,62.26
2023-02-04T08:35:27.991Z,62.32
2023-02-04T08:37:56.471Z,62.63
2023-02-04T08:40:24.757Z,62.62
2023-02-04T08:42:54.626Z,62.33
2023-02-04T08:45:22.965Z,62.04
2023-02-04T08:47:51.284Z,61.59
2023-02-04T08:50:19.919Z,61.10
2023-02-04T08:52:48.285Z,61.11
2023-02-04T08:55:17.080Z,60.15
2023-02-04T08:57:45.437Z,60.35
2023-02-04T09:00:16.551Z,60.26
2023-02-04T09:02:45.047Z,60.28
2023-02-04T09:05:13.552Z,60.46
2023-02-04T09:07:41.840Z,60.94
2023-02-04T09:10:10.590Z,60.84
2023-02-04T09:12:39.005Z,60.88
2023-02-04T09:15:07.807Z,60.87
2023-02-04T09:17:37.813Z,60.75
2023-02-04T09:20:07.947Z,60.17
2023-02-04T09:22:37.936Z,59.54
2023-02-04T09:25:06.852Z,59.48
2023-02-04T09:27:35.228Z,60.17
2023-02-04T09:30:03.566Z,60.33
2023-02-04T09:32:32.081Z,60.43
2023-02-04T09:35:01.966Z,60.15
2023-02-04T09:37:30.398Z,59.93
2023-02-04T09:39:58.729Z,59.63
2023-02-04T09:42:28.209Z,59.82
2023-02-04T09:44:56.647Z,59.73
2023-02-04T09:47:26.808Z,59.69
2023-02-04T09:49:55.181Z,59.35
2023-02-04T09:52:25.242Z,59.40
2023-02-04T09:54:53.584Z,59.70
2023-02-04T09:57:22.615Z,59.83
2023-02-04T09:59:52.933Z,59.79
2023-02-04T10:02:26.510Z,59.64
2023-02-04T10:04:59.067Z,59.27
2023-02-04T10:07:32.482Z,59.49
2023-02-04T10:10:01.659Z,59.36
2023-02-04T10:12:32.607Z,59.14
2023-02-04T10:15:04.354Z,58.75
2023-02-04T10:17:33.604Z,58.25
2023-02-04T10:20:03.787Z,58.00
2023-02-04T10:22:34.333Z,57.64
2023-02-04T10:25:03.009Z,57.75
2023-02-04T10:27:31.395Z,58.02
2023-02-04T10:30:00.702Z,57.92
2023-02-04T10:32:31.598Z,57.52
2023-02-04T10:35:04.224Z,57.33
2023-02-04T10:37:34.670Z,57.42
2023-02-04T10:40:03.011Z,57.77
2023-02-04T10:42:32.634Z,57.77
2023-02-04T10:45:01.306Z,57.96
2023-02-04T10:47:31.967Z,58.00
2023-02-04T10:50:04.851Z,57.96
2023-02-04T10:52:39.589Z,57.77
2023-02-04T10:55:13.702Z,57.79
2023-02-04T10:57:43.718Z,56.72
2023-02-04T11:00:18.637Z,56.98
2023-02-04T11:02:53.826Z,57.55
2023-02-04T11:05:24.740Z,57.85
2023-02-04T11:07:54.628Z,57.72
2023-02-04T11:10:25.748Z,57.49
2023-02-04T11:13:05.871Z,57.12
2023-02-04T11:15:47.420Z,57.27
2023-02-04T11:18:30.259Z,56.23
2023-02-04T11:21:00.728Z,56.39
2023-02-04T11:23:38.170Z,56.16
2023-02-04T11:26:10.693Z,56.15
2023-02-04T11:28:52.482Z,55.67
2023-02-04T11:31:47.084Z,54.93
2023-02-04T11:34:32.735Z,54.70
2023-02-04T11:37:29.040Z,54.36
2023-02-04T11:40:02.966Z,54.84
2023-02-04T11:42:44.909Z,55.04
2023-02-04T11:45:17.344Z,55.21
2023-02-04T11:47:46.337Z,55.10
2023-02-04T11:50:19.206Z,55.09
2023-02-04T11:52:47.613Z,54.97
2023-02-04T11:55:19.376Z,54.84
2023-02-04T11:57:53.503Z,54.51
2023-02-04T12:00:26.225Z,53.91
2023-02-04T12:02:59.339Z,53.64
2023-02-04T12:05:39.718Z,54.10
2023-02-04T12:08:13.302Z,54.84
2023-02-04T12:10:51.332Z,54.77
2023-02-04T12:13:28.298Z,54.99
2023-02-04T12:16:01.999Z,54.75
2023-02-04T12:18:31.177Z,54.82
2023-02-04T12:21:00.799Z,54.65
2023-02-04T12:23:31.195Z,54.07
2023-02-04T12:26:01.315Z,54.27
2023-02-04T12:28:30.000Z,54.21
2023-02-04T12:30:58.954Z,53.59
2023-02-04T12:33:27.459Z,53.80
2023-02-04T12:35:56.035Z,53.90
2023-02-04T12:38:24.355Z,54.21
2023-02-04T12:40:52.785Z,54.21
2023-02-04T12:43:22.877Z,53.88
2023-02-04T12:45:51.324Z,53.92
2023-02-04T12:48:19.654Z,53.84
2023-02-04T12:50:48.079Z,53.80
2023-02-04T12:53:17.307Z,53.51
2023-02-04T12:55:47.098Z,53.13
2023-02-04T12:58:15.684Z,52.89
2023-02-04T13:00:46.334Z,53.14
2023-02-04T13:03:14.994Z,53.20
2023-02-04T13:05:43.499Z,53.17
2023-02-04T13:08:12.700Z,53.10
2023-02-04T13:10:41.650Z,53.07
2023-02-04T13:13:11.001Z,52.98
2023-02-04T13:15:39.708Z,52.98
2023-02-04T13:18:09.668Z,52.99
2023-02-04T13:20:39.126Z,52.62
2023-02-04T13:23:08.328Z,52.43
2023-02-04T13:25:38.129Z,52.25
2023-02-04T13:28:06.807Z,52.11
2023-02-04T13:30:35.387Z,52.41
2023-02-04T13:33:03.937Z,52.60
2023-02-04T13:35:34.200Z,52.64
2023-02-04T13:38:03.027Z,52.24
2023-02-04T13:40:31.937Z,52.56
2023-02-04T13:43:00.348Z,52.59
2023-02-04T13:45:29.034Z,52.24
2023-02-04T13:47:58.505Z,52.58
2023-02-04T13:50:26.920Z,51.88
2023-02-04T13:52:57.003Z,51.59
2023-02-04T13:55:25.399Z,52.10
2023-02-04T13:57:54.178Z,51.89
2023-02-04T14:00:23.828Z,51.46
2023-02-04T14:03:04.081Z,51.65
2023-02-04T14:05:33.448Z,51.59
2023-02-04T14:08:04.480Z,51.79
2023-02-04T14:10:33.240Z,51.70
2023-02-04T14:13:02.144Z,51.56
2023-02-04T14:15:30.979Z,51.60
2023-02-04T14:17:59.379Z,51.44
2023-02-04T14:20:27.857Z,51.34
2023-02-04T14:22:57.477Z,50.98
2023-02-04T14:25:27.422Z,50.96
2023-02-04T14:27:58.671Z,50.90
2023-02-04T14:30:30.454Z,51.27
2023-02-04T14:33:00.032Z,51.29
2023-02-04T14:35:28.625Z,51.25
2023-02-04T14:37:57.112Z,51.32
2023-02-04T14:40:27.278Z,50.87
2023-02-04T14:42:55.645Z,50.89
2023-02-04T14:45:24.705Z,51.04
2023-02-04T14:47:57.065Z,51.11
2023-02-04T14:50:27.284Z,50.86
2023-02-04T14:52:57.017Z,50.73
2023-02-04T14:55:27.328Z,50.50
2023-02-04T14:57:55.709Z,50.27
2023-02-04T15:00:25.908Z,50.16
2023-02-04T15:02:55.656Z,50.06
2023-02-04T15:05:24.015Z,49.97
2023-02-04T15:07:52.345Z,50.06
2023-02-04T15:10:21.421Z,50.07
2023-02-04T15:12:51.507Z,50.01
2023-02-04T15:15:20.024Z,49.87
2023-02-04T15:17:50.691Z,49.97
2023-02-04T15:20:20.085Z,49.65
2023-02-04T15:22:52.193Z,49.75
2023-02-04T15:25:20.737Z,49.82
2023-02-04T15:27:51.687Z,49.31
2023-02-04T15:30:20.278Z,48.74
2023-02-04T15:32:48.923Z,48.60
2023-02-04T15:35:18.407Z,48.84
2023-02-04T15:37:46.878Z,49.01
2023-02-04T15:40:16.418Z,49.34
2023-02-04T15:42:44.858Z,49.45
2023-02-04T15:45:15.474Z,49.65
2023-02-04T15:47:44.764Z,49.46
2023-02-04T15:50:15.389Z,49.54
2023-02-04T15:52:44.238Z,49.85
2023-02-04T15:55:12.599Z,49.14
2023-02-04T15:57:41.961Z,49.31
2023-02-04T16:00:11.400Z,49.33
2023-02-04T16:02:43.245Z,49.49
2023-02-04T16:05:11.712Z,49.43
2023-02-04T16:07:40.031Z,49.76
2023-02-04T16:10:09.219Z,50.22
2023-02-04T16:12:37.601Z,50.23
2023-02-04T16:15:06.452Z,50.46
2023-02-04T16:17:34.830Z,50.60
2023-02-04T16:20:04.986Z,50.47
2023-02-04T16:22:33.787Z,50.61
2023-02-04T16:25:02.171Z,50.46
2023-02-04T16:27:32.002Z,50.59
2023-02-04T16:30:00.536Z,50.64
2023-02-04T16:32:29.168Z,50.65
2023-02-04T16:34:59.711Z,50.96
2023-02-04T16:37:29.761Z,50.77
2023-02-04T16:39:58.216Z,50.95
2023-02-04T16:42:26.572Z,51.24
2023-02-04T16:44:54.917Z,51.41
2023-02-04T16:47:23.459Z,51.39
2023-02-04T16:49:52.042Z,51.26
2023-02-04T16:52:20.487Z,51.23
2023-02-04T16:54:50.296Z,51.44
2023-02-04T16:57:18.845Z,51.55
2023-02-04T16:59:47.276Z,51.56
2023-02-04T17:02:15.673Z,51.62
2023-02-04T17:04:43.952Z,51.61
2023-02-04T17:07:12.334Z,51.55
2023-02-04T17:09:40.672Z,51.63
2023-02-04T17:12:10.627Z,51.82
2023-02-04T17:14:41.242Z,51.74
2023-02-04T17:17:09.713Z,51.89
2023-02-04T17:19:38.040Z,51.98
2023-02-04T17:22:06.363Z,51.84
2023-02-04T17:24:36.601Z,51.92
2023-02-04T17:27:04.987Z,52.18
2023-02-04T17:29:34.958Z,52.21
2023-02-04T17:32:03.295Z,52.19
2023-02-04T17:34:31.720Z,52.44
2023-02-04T17:37:00.063Z,52.41
2023-02-04T17:39:28.496Z,52.48
2023-02-04T17:41:56.830Z,52.78
2023-02-04T17:44:27.094Z,52.79
2023-02-04T17:46:59.165Z,52.80
2023-02-04T17:49:27.942Z,53.05
2023-02-04T17:51:56.465Z,53.26
2023-02-04T17:54:25.248Z,53.14
2023-02-04T17:56:53.726Z,53.26
2023-02-04T17:59:22.206Z,53.29
2023-02-04T18:01:50.952Z,53.29
2023-02-04T18:04:21.201Z,53.15
2023-02-04T18:06:53.011Z,53.53
2023-02-04T18:09:21.490Z,53.42
2023-02-04T18:11:49.852Z,53.46
2023-02-04T18:14:22.277Z,53.62
2023-02-04T18:16:50.713Z,53.43
2023-02-04T18:19:22.274Z,53.64
2023-02-04T18:21:51.722Z,53.67
2023-02-04T18:24:24.058Z,54.01
2023-02-04T18:26:54.012Z,54.08
2023-02-04T18:29:34.121Z,54.01
2023-02-04T18:32:04.659Z,53.79
2023-02-04T18:34:38.734Z,53.63
2023-02-04T18:37:30.034Z,54.27
2023-02-04T18:40:17.802Z,54.07
2023-02-04T18:42:47.498Z,54.39
2023-02-04T18:45:24.172Z,54.70
2023-02-04T18:47:55.315Z,54.58
2023-02-04T18:50:29.924Z,54.67
2023-02-04T18:53:01.974Z,54.58
2023-02-04T18:55:34.946Z,54.46
2023-02-04T18:58:27.656Z,54.89
2023-02-04T19:00:59.851Z,54.77
2023-02-04T19:03:30.103Z,54.53
2023-02-04T19:06:02.011Z,54.75
2023-02-04T19:08:37.191Z,54.81
2023-02-04T19:11:18.367Z,54.62
2023-02-04T19:13:47.095Z,54.88
2023-02-04T19:16:23.535Z,54.67
2023-02-04T19:18:54.026Z,54.52
2023-02-04T19:21:30.076Z,55.08
2023-02-04T19:24:09.434Z,54.75
2023-02-04T19:26:41.471Z,54.96
2023-02-04T19:29:41.555Z,55.14
2023-02-04T19:32:28.650Z,55.47
2023-02-04T19:35:01.341Z,55.30
2023-02-04T19:37:40.034Z,55.22
2023-02-04T19:40:29.172Z,55.56
2023-02-04T19:43:04.213Z,55.81
2023-02-04T19:45:32.809Z,55.84
2023-02-04T19:48:03.411Z,55.57
2023-02-04T19:50:35.596Z,56.10
2023-02-04T19:53:14.397Z,55.96
2023-02-04T19:55:45.352Z,55.66
2023-02-04T19:58:20.192Z,55.55
2023-02-04T20:01:00.537Z,55.90
2023-02-04T20:03:42.843Z,56.35
2023-02-04T20:06:33.857Z,55.88
2023-02-04T20:09:08.196Z,55.82
2023-02-04T20:11:58.292Z,56.02
2023-02-04T20:14:42.893Z,55.86
2023-02-04T20:17:20.642Z,56.06
2023-02-04T20:19:49.659Z,56.00
2023-02-04T20:22:45.777Z,56.19
2023-02-04T20:25:38.621Z,56.16
2023-02-04T20:28:36.069Z,56.78
2023-02-04T20:31:23.841Z,56.48
2023-02-04T20:33:54.394Z,57.08
2023-02-04T20:36:38.549Z,56.99
2023-02-04T20:39:34.342Z,56.87
2023-02-04T20:42:40.411Z,57.23
2023-02-04T20:45:24.669Z,56.49
2023-02-04T20:47:55.493Z,56.59
2023-02-04T20:50:38.415Z,57.16
2023-02-04T20:53:23.646Z,56.89
2023-02-04T20:55:55.502Z,57.12
2023-02-04T20:58:28.184Z,56.96
2023-02-04T21:00:57.003Z,57.05
2023-02-04T21:03:29.036Z,57.14
2023-02-04T21:06:00.201Z,56.78
2023-02-04T21:08:38.295Z,57.15
2023-02-04T21:11:07.147Z,56.80
2023-02-04T21:13:37.686Z,57.16
2023-02-04T21:16:08.158Z,57.41
2023-02-04T21:18:37.379Z,56.96
2023-02-04T21:21:08.029Z,57.22
2023-02-04T21:23:36.896Z,57.16
2023-02-04T21:26:05.840Z,57.38
2023-02-04T21:28:34.771Z,57.44
2023-02-04T21:31:04.739Z,57.48
2023-02-04T21:33:33.345Z,57.03
2023-02-04T21:36:01.750Z,57.09
2023-02-04T21:38:30.024Z,57.01
2023-02-04T21:40:58.475Z,58.02
2023-02-04T21:43:26.946Z,57.80
2023-02-04T21:45:55.411Z,57.72
2023-02-04T21:48:25.128Z,57.36
2023-02-04T21:50:54.034Z,57.43
2023-02-04T21:53:22.440Z,57.47
2023-02-04T21:55:50.885Z,57.69
2023-02-04T21:58:19.199Z,57.64
2023-02-04T22:00:47.538Z,57.42
2023-02-04T22:03:17.556Z,57.50
2023-02-04T22:05:47.345Z,57.76
2023-02-04T22:08:15.759Z,57.67
2023-02-04T22:10:44.141Z,57.76
2023-02-04T22:13:29.616Z,57.51
2023-02-04T22:15:58.054Z,57.58
2023-02-04T22:18:26.478Z,57.52
2023-02-04T22:20:56.324Z,57.60
2023-02-04T22:23:24.711Z,57.74
2023-02-04T22:25:53.162Z,57.79
2023-02-04T22:28:21.671Z,58.17
2023-02-04T22:30:50.792Z,58.11
2023-02-04T22:33:20.160Z,57.70
2023-02-04T22:35:48.678Z,57.96
2023-02-04T22:38:20.615Z,57.96
2023-02-04T22:40:50.170Z,58.45
2023-02-04T22:43:18.677Z,57.72
2023-02-04T22:45:46.951Z,58.50
2023-02-04T22:48:15.405Z,58.05
2023-02-04T22:50:43.745Z,57.62
2023-02-04T22:53:12.075Z,58.02
2023-02-04T22:55:41.948Z,57.76
2023-02-04T22:58:10.307Z,57.88
2023-02-04T23:00:38.717Z,57.61
2023-02-04T23:03:07.150Z,58.10
2023-02-04T23:05:36.554Z,58.25
2023-02-04T23:08:05.082Z,58.02
2023-02-04T23:10:33.592Z,58.45
2023-02-04T23:13:03.480Z,58.39
2023-02-04T23:15:32.143Z,57.88
2023-02-04T23:18:00.722Z,57.72
2023-02-04T23:20:29.416Z,58.12
2023-02-04T23:22:57.992Z,58.15
2023-02-04T23:25:26.340Z,58.38
2023-02-04T23:27:54.838Z,58.54
2023-02-04T23:30:24.812Z,58.36
2023-02-04T23:32:53.292Z,58.37
2023-02-04T23:35:21.588Z,58.48
2023-02-04T23:37:50.090Z,58.57
2023-02-04T23:40:18.738Z,58.23
2023-02-04T23:42:47.246Z,58.57
2023-02-04T23:45:15.762Z,59.00
2023-02-04T23:47:45.635Z,58.39
2023-02-04T23:50:14.129Z,58.65
2023-02-04T23:52:43.159Z,58.34
2023-02-04T23:55:11.876Z,58.19
2023-02-04T23:57:40.529Z,58.51
